sensor_id;sensor_type;location;lat;lon;timestamp;temperature;humidity
56729;DHT22;42612;52.232;7.560;2022-09-09T00:02:26;22.00;53.20
56729;DHT22;42612;52.232;7.560;2022-09-09T00:08:06;22.00;53.20
56729;DHT22;42612;52.232;7.560;2022-09-09T00:11:01;21.90;53.30
56729;DHT22;42612;52.232;7.560;2022-09-09T00:13:52;21.90;53.40
56729;DHT22;42612;52.232;7.560;2022-09-09T00:16:39;21.90;53.60
56729;DHT22;42612;52.232;7.560;2022-09-09T00:19:30;21.80;53.60
56729;DHT22;42612;52.232;7.560;2022-09-09T00:22:19;21.90;53.70
56729;DHT22;42612;52.232;7.560;2022-09-09T00:25:10;21.80;53.70
56729;DHT22;42612;52.232;7.560;2022-09-09T00:27:58;21.90;53.90
56729;DHT22;42612;52.232;7.560;2022-09-09T00:30:44;21.80;53.90
56729;DHT22;42612;52.232;7.560;2022-09-09T00:33:33;21.80;54.10
56729;DHT22;42612;52.232;7.560;2022-09-09T00:36:21;21.70;54.20
56729;DHT22;42612;52.232;7.560;2022-09-09T00:39:24;21.80;54.20
56729;DHT22;42612;52.232;7.560;2022-09-09T00:42:18;21.70;54.30
56729;DHT22;42612;52.232;7.560;2022-09-09T00:48:01;21.70;54.30
56729;DHT22;42612;52.232;7.560;2022-09-09T00:50:59;21.70;54.40
56729;DHT22;42612;52.232;7.560;2022-09-09T01:06:29;21.70;54.90
56729;DHT22;42612;52.232;7.560;2022-09-09T01:09:33;21.70;54.80
56729;DHT22;42612;52.232;7.560;2022-09-09T01:12:30;21.70;54.90
56729;DHT22;42612;52.232;7.560;2022-09-09T01:15:22;21.70;54.90
56729;DHT22;42612;52.232;7.560;2022-09-09T01:18:11;21.70;54.90
56729;DHT22;42612;52.232;7.560;2022-09-09T01:21:06;21.70;54.90
56729;DHT22;42612;52.232;7.560;2022-09-09T01:24:05;21.70;54.90
56729;DHT22;42612;52.232;7.560;2022-09-09T01:27:00;21.70;55.50
56729;DHT22;42612;52.232;7.560;2022-09-09T01:29:48;21.70;54.80
56729;DHT22;42612;52.232;7.560;2022-09-09T01:32:42;21.70;55.50
56729;DHT22;42612;52.232;7.560;2022-09-09T01:35:35;21.60;54.70
56729;DHT22;42612;52.232;7.560;2022-09-09T01:38:22;21.70;54.70
56729;DHT22;42612;52.232;7.560;2022-09-09T01:41:09;21.70;54.60
56729;DHT22;42612;52.232;7.560;2022-09-09T01:43:55;21.60;54.60
56729;DHT22;42612;52.232;7.560;2022-09-09T01:46:42;21.60;54.50
56729;DHT22;42612;52.232;7.560;2022-09-09T01:49:28;21.60;54.60
56729;DHT22;42612;52.232;7.560;2022-09-09T01:52:14;21.60;54.50
56729;DHT22;42612;52.232;7.560;2022-09-09T01:55:00;21.60;54.60
56729;DHT22;42612;52.232;7.560;2022-09-09T01:57:50;21.60;54.70
56729;DHT22;42612;52.232;7.560;2022-09-09T02:00:56;21.60;54.70
56729;DHT22;42612;52.232;7.560;2022-09-09T02:04:05;21.60;54.70
56729;DHT22;42612;52.232;7.560;2022-09-09T02:06:59;21.60;54.60
56729;DHT22;42612;52.232;7.560;2022-09-09T02:09:47;21.60;54.50
56729;DHT22;42612;52.232;7.560;2022-09-09T02:12:39;21.60;54.60
56729;DHT22;42612;52.232;7.560;2022-09-09T02:15:30;21.60;54.60
56729;DHT22;42612;52.232;7.560;2022-09-09T02:18:31;21.50;54.50
56729;DHT22;42612;52.232;7.560;2022-09-09T02:21:20;21.50;54.50
56729;DHT22;42612;52.232;7.560;2022-09-09T02:24:08;21.50;54.50
56729;DHT22;42612;52.232;7.560;2022-09-09T02:26:55;21.40;54.50
56729;DHT22;42612;52.232;7.560;2022-09-09T02:29:43;21.40;54.40
56729;DHT22;42612;52.232;7.560;2022-09-09T02:32:30;21.40;54.50
56729;DHT22;42612;52.232;7.560;2022-09-09T02:35:19;21.30;54.60
56729;DHT22;42612;52.232;7.560;2022-09-09T02:38:08;21.30;54.60
56729;DHT22;42612;52.232;7.560;2022-09-09T02:40:57;21.30;54.70
56729;DHT22;42612;52.232;7.560;2022-09-09T02:43:43;21.30;54.80
56729;DHT22;42612;52.232;7.560;2022-09-09T02:46:34;21.20;54.70
56729;DHT22;42612;52.232;7.560;2022-09-09T02:49:31;21.30;54.80
56729;DHT22;42612;52.232;7.560;2022-09-09T02:55:49;21.30;54.90
56729;DHT22;42612;52.232;7.560;2022-09-09T02:58:37;21.20;54.70
56729;DHT22;42612;52.232;7.560;2022-09-09T03:01:25;21.20;54.70
56729;DHT22;42612;52.232;7.560;2022-09-09T03:04:11;21.20;54.80
56729;DHT22;42612;52.232;7.560;2022-09-09T03:06:57;21.20;54.90
56729;DHT22;42612;52.232;7.560;2022-09-09T03:09:44;21.10;54.90
56729;DHT22;42612;52.232;7.560;2022-09-09T03:12:30;21.10;55.00
56729;DHT22;42612;52.232;7.560;2022-09-09T03:15:16;21.10;55.10
56729;DHT22;42612;52.232;7.560;2022-09-09T03:18:02;21.00;55.10
56729;DHT22;42612;52.232;7.560;2022-09-09T03:20:48;21.00;55.00
56729;DHT22;42612;52.232;7.560;2022-09-09T03:23:36;21.00;55.10
56729;DHT22;42612;52.232;7.560;2022-09-09T03:26:22;21.00;55.00
56729;DHT22;42612;52.232;7.560;2022-09-09T03:29:08;20.90;55.10
56729;DHT22;42612;52.232;7.560;2022-09-09T03:31:54;20.90;55.00
56729;DHT22;42612;52.232;7.560;2022-09-09T03:34:40;20.90;55.10
56729;DHT22;42612;52.232;7.560;2022-09-09T03:37:26;20.90;55.40
56729;DHT22;42612;52.232;7.560;2022-09-09T03:40:17;20.90;55.10
56729;DHT22;42612;52.232;7.560;2022-09-09T03:43:05;20.90;55.20
56729;DHT22;42612;52.232;7.560;2022-09-09T03:45:51;20.90;55.20
56729;DHT22;42612;52.232;7.560;2022-09-09T03:48:38;20.90;55.30
56729;DHT22;42612;52.232;7.560;2022-09-09T03:51:24;20.90;55.30
56729;DHT22;42612;52.232;7.560;2022-09-09T03:54:10;20.90;55.30
56729;DHT22;42612;52.232;7.560;2022-09-09T03:56:56;20.90;55.20
56729;DHT22;42612;52.232;7.560;2022-09-09T03:59:42;20.90;55.30
56729;DHT22;42612;52.232;7.560;2022-09-09T04:02:28;20.90;55.30
56729;DHT22;42612;52.232;7.560;2022-09-09T04:05:14;20.90;55.30
56729;DHT22;42612;52.232;7.560;2022-09-09T04:08:01;20.90;55.40
56729;DHT22;42612;52.232;7.560;2022-09-09T04:10:47;20.90;55.30
56729;DHT22;42612;52.232;7.560;2022-09-09T04:13:34;20.90;55.40
56729;DHT22;42612;52.232;7.560;2022-09-09T04:16:23;20.90;55.40
56729;DHT22;42612;52.232;7.560;2022-09-09T04:19:09;20.90;55.30
56729;DHT22;42612;52.232;7.560;2022-09-09T04:21:57;20.90;55.30
56729;DHT22;42612;52.232;7.560;2022-09-09T04:24:44;20.90;55.30
56729;DHT22;42612;52.232;7.560;2022-09-09T04:27:29;20.90;55.40
56729;DHT22;42612;52.232;7.560;2022-09-09T04:30:15;20.90;55.30
56729;DHT22;42612;52.232;7.560;2022-09-09T04:33:02;20.90;55.40
56729;DHT22;42612;52.232;7.560;2022-09-09T04:35:49;20.90;55.40
56729;DHT22;42612;52.232;7.560;2022-09-09T04:38:35;20.90;55.40
56729;DHT22;42612;52.232;7.560;2022-09-09T04:41:21;20.90;55.40
56729;DHT22;42612;52.232;7.560;2022-09-09T04:44:07;20.90;55.40
56729;DHT22;42612;52.232;7.560;2022-09-09T04:46:53;20.90;55.40
56729;DHT22;42612;52.232;7.560;2022-09-09T04:49:39;20.90;55.40
56729;DHT22;42612;52.232;7.560;2022-09-09T04:52:26;20.90;55.40
56729;DHT22;42612;52.232;7.560;2022-09-09T04:55:12;20.90;55.50
56729;DHT22;42612;52.232;7.560;2022-09-09T04:58:02;20.90;55.40
56729;DHT22;42612;52.232;7.560;2022-09-09T05:00:51;20.90;55.40
56729;DHT22;42612;52.232;7.560;2022-09-09T05:03:37;20.90;55.50
56729;DHT22;42612;52.232;7.560;2022-09-09T05:06:24;20.90;55.50
56729;DHT22;42612;52.232;7.560;2022-09-09T05:09:10;20.90;55.50
56729;DHT22;42612;52.232;7.560;2022-09-09T05:11:56;20.80;55.50
56729;DHT22;42612;52.232;7.560;2022-09-09T05:14:42;20.80;55.30
56729;DHT22;42612;52.232;7.560;2022-09-09T05:17:29;20.80;55.50
56729;DHT22;42612;52.232;7.560;2022-09-09T05:20:15;20.80;55.60
56729;DHT22;42612;52.232;7.560;2022-09-09T05:23:01;20.70;55.70
56729;DHT22;42612;52.232;7.560;2022-09-09T05:25:54;20.70;55.60
56729;DHT22;42612;52.232;7.560;2022-09-09T05:28:43;20.70;56.00
56729;DHT22;42612;52.232;7.560;2022-09-09T05:31:30;20.70;55.80
56729;DHT22;42612;52.232;7.560;2022-09-09T05:34:16;20.70;55.80
56729;DHT22;42612;52.232;7.560;2022-09-09T05:37:02;20.60;55.80
56729;DHT22;42612;52.232;7.560;2022-09-09T05:39:48;20.60;55.90
56729;DHT22;42612;52.232;7.560;2022-09-09T05:42:34;20.60;56.00
56729;DHT22;42612;52.232;7.560;2022-09-09T05:45:20;20.60;55.90
56729;DHT22;42612;52.232;7.560;2022-09-09T05:48:06;20.60;56.00
56729;DHT22;42612;52.232;7.560;2022-09-09T05:50:53;20.60;56.10
56729;DHT22;42612;52.232;7.560;2022-09-09T05:53:39;20.60;56.10
56729;DHT22;42612;52.232;7.560;2022-09-09T05:56:26;20.60;56.40
56729;DHT22;42612;52.232;7.560;2022-09-09T05:59:13;20.60;56.10
56729;DHT22;42612;52.232;7.560;2022-09-09T06:02:00;20.60;56.20
56729;DHT22;42612;52.232;7.560;2022-09-09T06:04:46;20.60;56.20
56729;DHT22;42612;52.232;7.560;2022-09-09T06:07:32;20.60;56.20
56729;DHT22;42612;52.232;7.560;2022-09-09T06:10:18;20.60;56.40
56729;DHT22;42612;52.232;7.560;2022-09-09T06:13:04;20.60;56.50
56729;DHT22;42612;52.232;7.560;2022-09-09T06:15:51;20.60;56.30
56729;DHT22;42612;52.232;7.560;2022-09-09T06:18:38;20.60;56.40
56729;DHT22;42612;52.232;7.560;2022-09-09T06:21:28;20.70;56.40
56729;DHT22;42612;52.232;7.560;2022-09-09T06:24:24;20.70;56.50
56729;DHT22;42612;52.232;7.560;2022-09-09T06:27:10;20.70;56.50
56729;DHT22;42612;52.232;7.560;2022-09-09T06:29:56;20.70;56.40
56729;DHT22;42612;52.232;7.560;2022-09-09T06:32:42;20.70;56.50
56729;DHT22;42612;52.232;7.560;2022-09-09T06:35:28;20.80;56.50
56729;DHT22;42612;52.232;7.560;2022-09-09T06:38:14;20.80;56.60
56729;DHT22;42612;52.232;7.560;2022-09-09T06:41:00;20.80;56.60
56729;DHT22;42612;52.232;7.560;2022-09-09T06:43:47;20.80;56.70
56729;DHT22;42612;52.232;7.560;2022-09-09T06:46:33;20.90;56.60
56729;DHT22;42612;52.232;7.560;2022-09-09T06:49:21;20.90;56.70
56729;DHT22;42612;52.232;7.560;2022-09-09T06:52:07;20.90;56.60
56729;DHT22;42612;52.232;7.560;2022-09-09T06:54:54;20.90;56.70
56729;DHT22;42612;52.232;7.560;2022-09-09T06:57:40;20.90;56.50
56729;DHT22;42612;52.232;7.560;2022-09-09T07:00:26;20.90;56.60
56729;DHT22;42612;52.232;7.560;2022-09-09T07:03:12;21.00;56.50
56729;DHT22;42612;52.232;7.560;2022-09-09T07:05:58;21.00;56.60
56729;DHT22;42612;52.232;7.560;2022-09-09T07:08:51;21.00;56.50
56729;DHT22;42612;52.232;7.560;2022-09-09T07:11:39;21.00;56.60
56729;DHT22;42612;52.232;7.560;2022-09-09T07:14:28;21.10;56.50
56729;DHT22;42612;52.232;7.560;2022-09-09T07:17:14;21.10;56.60
56729;DHT22;42612;52.232;7.560;2022-09-09T07:20:00;21.10;56.70
56729;DHT22;42612;52.232;7.560;2022-09-09T07:22:47;21.10;56.60
56729;DHT22;42612;52.232;7.560;2022-09-09T07:25:33;21.20;56.70
56729;DHT22;42612;52.232;7.560;2022-09-09T07:28:20;21.20;56.60
56729;DHT22;42612;52.232;7.560;2022-09-09T07:31:06;21.20;57.00
56729;DHT22;42612;52.232;7.560;2022-09-09T07:33:54;21.30;56.80
56729;DHT22;42612;52.232;7.560;2022-09-09T07:36:40;21.30;56.80
56729;DHT22;42612;52.232;7.560;2022-09-09T07:39:27;21.30;57.30
56729;DHT22;42612;52.232;7.560;2022-09-09T07:42:13;21.30;56.90
56729;DHT22;42612;52.232;7.560;2022-09-09T07:45:00;21.20;57.30
56729;DHT22;42612;52.232;7.560;2022-09-09T07:47:46;21.30;56.80
56729;DHT22;42612;52.232;7.560;2022-09-09T07:50:34;21.30;56.60
56729;DHT22;42612;52.232;7.560;2022-09-09T07:53:20;21.30;57.00
56729;DHT22;42612;52.232;7.560;2022-09-09T07:56:07;21.30;57.50
56729;DHT22;42612;52.232;7.560;2022-09-09T07:58:57;21.30;57.10
56729;DHT22;42612;52.232;7.560;2022-09-09T08:01:45;21.40;57.30
56729;DHT22;42612;52.232;7.560;2022-09-09T08:04:32;21.40;57.60
56729;DHT22;42612;52.232;7.560;2022-09-09T08:07:18;21.40;57.60
56729;DHT22;42612;52.232;7.560;2022-09-09T08:10:05;21.40;57.90
56729;DHT22;42612;52.232;7.560;2022-09-09T08:12:51;21.40;57.40
56729;DHT22;42612;52.232;7.560;2022-09-09T08:15:38;21.40;57.30
56729;DHT22;42612;52.232;7.560;2022-09-09T08:18:24;21.40;57.70
56729;DHT22;42612;52.232;7.560;2022-09-09T08:21:13;21.50;57.80
56729;DHT22;42612;52.232;7.560;2022-09-09T08:24:00;21.60;57.50
56729;DHT22;42612;52.232;7.560;2022-09-09T08:26:47;21.50;57.50
56729;DHT22;42612;52.232;7.560;2022-09-09T08:29:36;21.50;57.20
56729;DHT22;42612;52.232;7.560;2022-09-09T08:32:23;21.60;58.00
56729;DHT22;42612;52.232;7.560;2022-09-09T08:35:09;21.70;58.00
56729;DHT22;42612;52.232;7.560;2022-09-09T08:37:55;21.70;57.40
56729;DHT22;42612;52.232;7.560;2022-09-09T08:40:43;21.80;57.30
56729;DHT22;42612;52.232;7.560;2022-09-09T08:43:34;21.80;56.80
56729;DHT22;42612;52.232;7.560;2022-09-09T08:46:33;21.80;56.60
56729;DHT22;42612;52.232;7.560;2022-09-09T08:52:25;21.80;56.60
56729;DHT22;42612;52.232;7.560;2022-09-09T08:58:33;21.90;56.80
56729;DHT22;42612;52.232;7.560;2022-09-09T09:01:28;21.80;56.80
56729;DHT22;42612;52.232;7.560;2022-09-09T09:04:38;21.90;56.70
56729;DHT22;42612;52.232;7.560;2022-09-09T09:10:49;21.90;56.30
56729;DHT22;42612;52.232;7.560;2022-09-09T09:13:47;21.90;56.40
56729;DHT22;42612;52.232;7.560;2022-09-09T09:19:43;22.00;56.70
56729;DHT22;42612;52.232;7.560;2022-09-09T09:22:32;22.00;56.40
56729;DHT22;42612;52.232;7.560;2022-09-09T09:25:34;22.00;56.70
56729;DHT22;42612;52.232;7.560;2022-09-09T09:28:23;22.00;56.80
56729;DHT22;42612;52.232;7.560;2022-09-09T09:31:10;22.10;56.90
56729;DHT22;42612;52.232;7.560;2022-09-09T09:33:57;22.20;56.60
56729;DHT22;42612;52.232;7.560;2022-09-09T09:36:44;22.20;56.50
56729;DHT22;42612;52.232;7.560;2022-09-09T09:39:32;22.20;56.40
56729;DHT22;42612;52.232;7.560;2022-09-09T09:42:24;22.30;56.30
56729;DHT22;42612;52.232;7.560;2022-09-09T09:45:20;22.30;56.30
56729;DHT22;42612;52.232;7.560;2022-09-09T09:48:09;22.30;56.00
56729;DHT22;42612;52.232;7.560;2022-09-09T09:50:58;22.30;56.00
56729;DHT22;42612;52.232;7.560;2022-09-09T09:53:46;22.30;56.10
56729;DHT22;42612;52.232;7.560;2022-09-09T09:56:32;22.40;56.20
56729;DHT22;42612;52.232;7.560;2022-09-09T09:59:22;22.40;55.70
56729;DHT22;42612;52.232;7.560;2022-09-09T10:02:18;22.40;55.80
56729;DHT22;42612;52.232;7.560;2022-09-09T10:05:09;22.50;55.90
56729;DHT22;42612;52.232;7.560;2022-09-09T10:08:13;22.50;55.90
56729;DHT22;42612;52.232;7.560;2022-09-09T10:24:02;22.80;55.20
56729;DHT22;42612;52.232;7.560;2022-09-09T10:27:13;22.80;55.00
56729;DHT22;42612;52.232;7.560;2022-09-09T10:30:14;22.90;54.90
56729;DHT22;42612;52.232;7.560;2022-09-09T10:33:08;23.00;54.60
56729;DHT22;42612;52.232;7.560;2022-09-09T10:39:15;23.10;52.80
56729;DHT22;42612;52.232;7.560;2022-09-09T10:42:12;23.20;53.60
56729;DHT22;42612;52.232;7.560;2022-09-09T10:45:13;23.30;53.10
56729;DHT22;42612;52.232;7.560;2022-09-09T10:48:05;23.40;52.70
56729;DHT22;42612;52.232;7.560;2022-09-09T10:57:11;23.70;51.80
56729;DHT22;42612;52.232;7.560;2022-09-09T11:00:04;23.70;53.00
56729;DHT22;42612;52.232;7.560;2022-09-09T11:02:59;23.70;52.40
56729;DHT22;42612;52.232;7.560;2022-09-09T11:05:49;23.70;50.80
56729;DHT22;42612;52.232;7.560;2022-09-09T11:08:38;23.60;51.80
56729;DHT22;42612;52.232;7.560;2022-09-09T11:11:26;23.70;50.80
56729;DHT22;42612;52.232;7.560;2022-09-09T11:14:36;23.70;51.30
56729;DHT22;42612;52.232;7.560;2022-09-09T11:17:54;23.70;51.30
56729;DHT22;42612;52.232;7.560;2022-09-09T11:20:42;23.80;52.20
56729;DHT22;42612;52.232;7.560;2022-09-09T11:23:33;24.00;51.20
56729;DHT22;42612;52.232;7.560;2022-09-09T11:26:47;24.00;51.90
56729;DHT22;42612;52.232;7.560;2022-09-09T11:29:56;24.10;49.80
56729;DHT22;42612;52.232;7.560;2022-09-09T11:36:19;24.40;52.60
56729;DHT22;42612;52.232;7.560;2022-09-09T11:42:21;24.50;52.50
56729;DHT22;42612;52.232;7.560;2022-09-09T11:45:19;24.50;51.50
56729;DHT22;42612;52.232;7.560;2022-09-09T11:57:31;24.90;49.60
56729;DHT22;42612;52.232;7.560;2022-09-09T12:12:42;25.30;50.20
56729;DHT22;42612;52.232;7.560;2022-09-09T12:15:28;25.30;49.70
56729;DHT22;42612;52.232;7.560;2022-09-09T12:18:15;25.30;48.80
56729;DHT22;42612;52.232;7.560;2022-09-09T12:21:14;25.40;49.30
56729;DHT22;42612;52.232;7.560;2022-09-09T12:24:13;25.40;49.20
56729;DHT22;42612;52.232;7.560;2022-09-09T12:27:18;25.40;50.20
56729;DHT22;42612;52.232;7.560;2022-09-09T12:30:09;25.50;50.50
56729;DHT22;42612;52.232;7.560;2022-09-09T12:33:08;25.50;50.20
56729;DHT22;42612;52.232;7.560;2022-09-09T12:35:57;25.40;46.90
56729;DHT22;42612;52.232;7.560;2022-09-09T12:38:46;25.50;48.40
56729;DHT22;42612;52.232;7.560;2022-09-09T12:41:32;25.50;47.80
56729;DHT22;42612;52.232;7.560;2022-09-09T12:44:18;25.50;47.90
56729;DHT22;42612;52.232;7.560;2022-09-09T12:47:04;25.40;47.90
56729;DHT22;42612;52.232;7.560;2022-09-09T12:49:50;25.40;48.30
56729;DHT22;42612;52.232;7.560;2022-09-09T12:52:36;25.30;47.30
56729;DHT22;42612;52.232;7.560;2022-09-09T12:55:25;25.30;46.30
56729;DHT22;42612;52.232;7.560;2022-09-09T12:58:16;25.10;47.80
56729;DHT22;42612;52.232;7.560;2022-09-09T13:01:04;25.10;49.70
56729;DHT22;42612;52.232;7.560;2022-09-09T13:03:50;25.00;50.00
56729;DHT22;42612;52.232;7.560;2022-09-09T13:06:36;25.00;49.80
56729;DHT22;42612;52.232;7.560;2022-09-09T13:09:22;25.00;48.60
56729;DHT22;42612;52.232;7.560;2022-09-09T13:12:13;25.00;48.20
56729;DHT22;42612;52.232;7.560;2022-09-09T13:15:01;24.90;49.30
56729;DHT22;42612;52.232;7.560;2022-09-09T13:17:51;24.90;49.40
56729;DHT22;42612;52.232;7.560;2022-09-09T13:20:39;24.90;49.50
56729;DHT22;42612;52.232;7.560;2022-09-09T13:23:49;24.90;49.30
56729;DHT22;42612;52.232;7.560;2022-09-09T13:26:37;24.90;48.70
56729;DHT22;42612;52.232;7.560;2022-09-09T13:29:24;24.90;48.30
56729;DHT22;42612;52.232;7.560;2022-09-09T13:32:16;24.90;48.50
56729;DHT22;42612;52.232;7.560;2022-09-09T13:35:02;24.90;46.80
56729;DHT22;42612;52.232;7.560;2022-09-09T13:37:48;25.00;47.40
56729;DHT22;42612;52.232;7.560;2022-09-09T13:40:35;25.00;48.30
56729;DHT22;42612;52.232;7.560;2022-09-09T13:43:22;25.00;48.40
56729;DHT22;42612;52.232;7.560;2022-09-09T13:52:04;25.10;47.70
56729;DHT22;42612;52.232;7.560;2022-09-09T13:54:53;25.10;47.70
56729;DHT22;42612;52.232;7.560;2022-09-09T13:57:49;25.10;47.10
56729;DHT22;42612;52.232;7.560;2022-09-09T14:00:41;25.10;47.20
56729;DHT22;42612;52.232;7.560;2022-09-09T14:03:27;25.10;48.00
56729;DHT22;42612;52.232;7.560;2022-09-09T14:06:13;25.00;47.60
56729;DHT22;42612;52.232;7.560;2022-09-09T14:08:59;24.90;45.70
56729;DHT22;42612;52.232;7.560;2022-09-09T14:11:45;24.90;46.70
56729;DHT22;42612;52.232;7.560;2022-09-09T14:14:31;24.70;47.10
56729;DHT22;42612;52.232;7.560;2022-09-09T14:17:17;24.60;47.60
56729;DHT22;42612;52.232;7.560;2022-09-09T14:20:03;24.50;47.90
56729;DHT22;42612;52.232;7.560;2022-09-09T14:22:54;24.40;48.40
56729;DHT22;42612;52.232;7.560;2022-09-09T14:25:43;24.40;48.70
56729;DHT22;42612;52.232;7.560;2022-09-09T14:28:29;24.30;48.70
56729;DHT22;42612;52.232;7.560;2022-09-09T14:31:16;24.30;48.50
56729;DHT22;42612;52.232;7.560;2022-09-09T14:34:04;24.20;48.60
56729;DHT22;42612;52.232;7.560;2022-09-09T14:36:51;24.10;48.60
56729;DHT22;42612;52.232;7.560;2022-09-09T14:39:37;24.10;49.00
56729;DHT22;42612;52.232;7.560;2022-09-09T14:42:23;24.00;49.10
56729;DHT22;42612;52.232;7.560;2022-09-09T14:45:09;23.90;49.50
56729;DHT22;42612;52.232;7.560;2022-09-09T14:47:56;23.80;49.70
56729;DHT22;42612;52.232;7.560;2022-09-09T14:50:42;23.70;50.20
56729;DHT22;42612;52.232;7.560;2022-09-09T14:53:28;23.60;50.40
56729;DHT22;42612;52.232;7.560;2022-09-09T14:56:16;23.50;50.50
56729;DHT22;42612;52.232;7.560;2022-09-09T14:59:03;23.50;51.20
56729;DHT22;42612;52.232;7.560;2022-09-09T15:01:49;23.40;51.60
56729;DHT22;42612;52.232;7.560;2022-09-09T15:04:35;23.40;51.30
56729;DHT22;42612;52.232;7.560;2022-09-09T15:07:21;23.30;51.70
56729;DHT22;42612;52.232;7.560;2022-09-09T15:10:07;23.20;51.60
56729;DHT22;42612;52.232;7.560;2022-09-09T15:12:54;23.10;51.60
56729;DHT22;42612;52.232;7.560;2022-09-09T15:15:40;23.10;51.50
56729;DHT22;42612;52.232;7.560;2022-09-09T15:18:27;23.10;51.60
56729;DHT22;42612;52.232;7.560;2022-09-09T15:21:15;23.00;51.80
56729;DHT22;42612;52.232;7.560;2022-09-09T15:24:04;23.00;51.80
56729;DHT22;42612;52.232;7.560;2022-09-09T15:26:50;23.00;51.90
56729;DHT22;42612;52.232;7.560;2022-09-09T15:29:36;23.00;52.00
56729;DHT22;42612;52.232;7.560;2022-09-09T15:32:23;23.00;52.00
56729;DHT22;42612;52.232;7.560;2022-09-09T15:35:09;23.00;51.90
56729;DHT22;42612;52.232;7.560;2022-09-09T15:37:55;23.10;52.10
56729;DHT22;42612;52.232;7.560;2022-09-09T15:40:43;23.10;52.10
56729;DHT22;42612;52.232;7.560;2022-09-09T15:43:29;23.10;52.10
56729;DHT22;42612;52.232;7.560;2022-09-09T15:49:16;23.30;52.20
56729;DHT22;42612;52.232;7.560;2022-09-09T15:52:04;23.30;52.10
56729;DHT22;42612;52.232;7.560;2022-09-09T15:54:50;23.40;52.10
56729;DHT22;42612;52.232;7.560;2022-09-09T15:57:36;23.50;52.70
56729;DHT22;42612;52.232;7.560;2022-09-09T16:00:22;23.50;52.10
56729;DHT22;42612;52.232;7.560;2022-09-09T16:03:08;23.60;52.10
56729;DHT22;42612;52.232;7.560;2022-09-09T16:05:54;23.60;51.90
56729;DHT22;42612;52.232;7.560;2022-09-09T16:08:42;23.70;51.90
56729;DHT22;42612;52.232;7.560;2022-09-09T16:11:31;23.70;51.90
56729;DHT22;42612;52.232;7.560;2022-09-09T16:14:28;23.80;51.90
56729;DHT22;42612;52.232;7.560;2022-09-09T16:17:14;23.80;51.70
56729;DHT22;42612;52.232;7.560;2022-09-09T16:20:01;23.80;51.50
56729;DHT22;42612;52.232;7.560;2022-09-09T16:22:47;23.80;51.50
56729;DHT22;42612;52.232;7.560;2022-09-09T16:25:33;23.80;51.40
56729;DHT22;42612;52.232;7.560;2022-09-09T16:28:19;23.80;51.30
56729;DHT22;42612;52.232;7.560;2022-09-09T16:31:06;23.80;51.20
56729;DHT22;42612;52.232;7.560;2022-09-09T16:33:53;23.80;51.20
56729;DHT22;42612;52.232;7.560;2022-09-09T16:36:39;23.70;51.10
56729;DHT22;42612;52.232;7.560;2022-09-09T16:39:26;23.70;51.20
56729;DHT22;42612;52.232;7.560;2022-09-09T16:42:12;23.70;51.30
56729;DHT22;42612;52.232;7.560;2022-09-09T16:44:58;23.70;51.40
56729;DHT22;42612;52.232;7.560;2022-09-09T16:47:44;23.70;51.40
56729;DHT22;42612;52.232;7.560;2022-09-09T16:50:30;23.70;51.50
56729;DHT22;42612;52.232;7.560;2022-09-09T16:53:16;23.70;51.50
56729;DHT22;42612;52.232;7.560;2022-09-09T16:56:06;23.70;51.60
56729;DHT22;42612;52.232;7.560;2022-09-09T16:58:54;23.70;51.70
56729;DHT22;42612;52.232;7.560;2022-09-09T17:01:42;23.70;51.70
56729;DHT22;42612;52.232;7.560;2022-09-09T17:04:29;23.60;51.70
56729;DHT22;42612;52.232;7.560;2022-09-09T17:07:16;23.60;52.20
56729;DHT22;42612;52.232;7.560;2022-09-09T17:10:04;23.50;52.10
56729;DHT22;42612;52.232;7.560;2022-09-09T17:12:51;23.40;52.30
56729;DHT22;42612;52.232;7.560;2022-09-09T17:15:41;23.30;52.10
56729;DHT22;42612;52.232;7.560;2022-09-09T17:18:28;23.20;52.10
56729;DHT22;42612;52.232;7.560;2022-09-09T17:21:15;23.10;52.10
56729;DHT22;42612;52.232;7.560;2022-09-09T17:24:03;23.00;52.10
56729;DHT22;42612;52.232;7.560;2022-09-09T17:26:50;23.00;52.10
56729;DHT22;42612;52.232;7.560;2022-09-09T17:29:36;22.90;52.20
56729;DHT22;42612;52.232;7.560;2022-09-09T17:32:22;22.80;52.00
56729;DHT22;42612;52.232;7.560;2022-09-09T17:35:08;22.70;52.00
56729;DHT22;42612;52.232;7.560;2022-09-09T17:37:54;22.60;52.10
56729;DHT22;42612;52.232;7.560;2022-09-09T17:40:40;22.60;52.10
56729;DHT22;42612;52.232;7.560;2022-09-09T17:43:26;22.60;52.20
56729;DHT22;42612;52.232;7.560;2022-09-09T17:46:13;22.50;52.20
56729;DHT22;42612;52.232;7.560;2022-09-09T17:49:02;22.50;52.40
56729;DHT22;42612;52.232;7.560;2022-09-09T17:51:50;22.40;52.30
56729;DHT22;42612;52.232;7.560;2022-09-09T17:54:36;22.40;52.40
56729;DHT22;42612;52.232;7.560;2022-09-09T17:57:22;22.50;52.50
56729;DHT22;42612;52.232;7.560;2022-09-09T18:00:08;22.40;52.60
56729;DHT22;42612;52.232;7.560;2022-09-09T18:02:54;22.40;52.70
56729;DHT22;42612;52.232;7.560;2022-09-09T18:05:40;22.40;52.70
56729;DHT22;42612;52.232;7.560;2022-09-09T18:08:26;22.40;52.90
56729;DHT22;42612;52.232;7.560;2022-09-09T18:11:13;22.40;53.00
56729;DHT22;42612;52.232;7.560;2022-09-09T18:14:00;22.40;53.10
56729;DHT22;42612;52.232;7.560;2022-09-09T18:16:47;22.30;53.10
56729;DHT22;42612;52.232;7.560;2022-09-09T18:19:33;22.30;53.30
56729;DHT22;42612;52.232;7.560;2022-09-09T18:22:20;22.30;53.30
56729;DHT22;42612;52.232;7.560;2022-09-09T18:25:08;22.30;53.30
56729;DHT22;42612;52.232;7.560;2022-09-09T18:27:53;22.30;53.40
56729;DHT22;42612;52.232;7.560;2022-09-09T18:30:40;22.30;53.50
56729;DHT22;42612;52.232;7.560;2022-09-09T18:33:26;22.30;53.60
56729;DHT22;42612;52.232;7.560;2022-09-09T18:36:13;22.30;53.70
56729;DHT22;42612;52.232;7.560;2022-09-09T18:39:00;22.20;53.70
56729;DHT22;42612;52.232;7.560;2022-09-09T18:41:49;22.20;54.00
56729;DHT22;42612;52.232;7.560;2022-09-09T18:44:37;22.20;53.80
56729;DHT22;42612;52.232;7.560;2022-09-09T18:47:22;22.20;53.80
56729;DHT22;42612;52.232;7.560;2022-09-09T18:50:09;22.20;53.90
56729;DHT22;42612;52.232;7.560;2022-09-09T18:52:56;22.10;54.00
56729;DHT22;42612;52.232;7.560;2022-09-09T18:55:42;22.10;54.10
56729;DHT22;42612;52.232;7.560;2022-09-09T18:58:28;22.10;53.90
56729;DHT22;42612;52.232;7.560;2022-09-09T19:01:14;22.10;54.10
56729;DHT22;42612;52.232;7.560;2022-09-09T19:04:01;22.10;54.00
56729;DHT22;42612;52.232;7.560;2022-09-09T19:06:48;22.10;53.90
56729;DHT22;42612;52.232;7.560;2022-09-09T19:09:42;22.10;54.20
56729;DHT22;42612;52.232;7.560;2022-09-09T19:12:28;22.10;54.30
56729;DHT22;42612;52.232;7.560;2022-09-09T19:15:15;22.10;54.10
56729;DHT22;42612;52.232;7.560;2022-09-09T19:18:02;22.00;54.00
56729;DHT22;42612;52.232;7.560;2022-09-09T19:20:48;22.00;53.90